createdAt,value
2022-08-22T00:02:42.775Z,13.00
2022-08-22T00:02:58.483Z,13.57
2022-08-22T00:02:58.943Z,13.93
2022-08-22T00:03:06.628Z,13.60
2022-08-22T00:03:09.032Z,9.93
2022-08-22T00:06:31.944Z,17.38
2022-08-22T00:09:43.072Z,13.35
2022-08-22T00:12:52.041Z,14.52
2022-08-22T00:16:04.283Z,13.57
2022-08-22T00:19:18.032Z,15.80
2022-08-22T00:22:27.177Z,14.20
2022-08-22T00:25:59.161Z,15.02
2022-08-22T00:29:04.921Z,14.27
2022-08-22T00:32:15.117Z,13.20
2022-08-22T00:38:30.712Z,14.75
2022-08-22T00:42:00.809Z,13.80
2022-08-22T00:45:33.429Z,16.67
2022-08-22T00:49:18.489Z,15.27
2022-08-22T00:52:38.953Z,15.55
2022-08-22T00:55:54.321Z,17.98
2022-08-22T00:59:22.943Z,15.80
2022-08-22T01:02:36.441Z,16.08
2022-08-22T01:06:02.360Z,13.63
2022-08-22T01:09:15.206Z,18.52
2022-08-22T01:12:43.095Z,17.70
2022-08-22T01:15:51.594Z,13.43
2022-08-22T01:19:30.719Z,15.05
2022-08-22T01:22:56.917Z,15.77
2022-08-22T01:26:49.074Z,18.80
2022-08-22T01:30:19.210Z,14.98
2022-08-22T01:34:05.543Z,17.88
2022-08-22T01:38:02.219Z,14.70
2022-08-22T01:41:39.504Z,15.02
2022-08-22T01:45:07.313Z,16.65
2022-08-22T01:48:17.417Z,15.07
2022-08-22T01:51:28.567Z,16.27
2022-08-22T01:54:40.718Z,16.88
2022-08-22T01:57:53.209Z,16.42
2022-08-22T02:01:09.288Z,18.20
2022-08-22T02:04:19.403Z,18.63
2022-08-22T02:07:32.142Z,16.02
2022-08-22T02:11:03.691Z,20.95
2022-08-22T02:14:16.901Z,19.88
2022-08-22T02:17:27.281Z,15.07
2022-08-22T02:20:34.885Z,17.90
2022-08-22T02:23:57.693Z,17.33
2022-08-22T02:27:11.268Z,17.33
2022-08-22T02:30:17.821Z,16.75
2022-08-22T02:33:30.273Z,18.23
2022-08-22T02:36:46.832Z,17.88
2022-08-22T02:39:57.118Z,19.35
2022-08-22T02:43:07.340Z,17.23
2022-08-22T02:49:27.408Z,18.67
2022-08-22T02:52:40.490Z,20.05
2022-08-22T02:55:57.390Z,15.93
2022-08-22T02:59:15.621Z,26.27
2022-08-22T03:02:33.681Z,19.17
2022-08-22T03:06:01.683Z,16.65
2022-08-22T03:09:23.249Z,22.17
2022-08-22T03:12:34.098Z,18.58
2022-08-22T03:15:49.227Z,18.92
2022-08-22T03:19:00.183Z,18.80
2022-08-22T03:22:08.317Z,19.63
2022-08-22T03:25:20.126Z,23.20
2022-08-22T03:28:32.012Z,18.13
2022-08-22T03:31:36.813Z,20.17
2022-08-22T03:34:55.027Z,22.27
2022-08-22T03:38:18.080Z,17.77
2022-08-22T03:41:41.825Z,20.48
2022-08-22T03:45:11.849Z,20.63
2022-08-22T03:48:39.979Z,19.15
2022-08-22T03:52:04.928Z,16.83
2022-08-22T03:55:23.875Z,17.80
2022-08-22T03:58:42.167Z,20.85
2022-08-22T04:02:31.489Z,19.23
2022-08-22T04:06:14.650Z,22.20
2022-08-22T04:09:41.815Z,21.95
2022-08-22T04:13:21.401Z,19.98
2022-08-22T04:16:58.848Z,19.55
2022-08-22T04:20:41.916Z,20.00
2022-08-22T04:24:15.612Z,20.63
2022-08-22T04:27:23.773Z,19.65
2022-08-22T04:30:36.579Z,23.27
2022-08-22T04:33:47.236Z,23.02
2022-08-22T04:36:56.584Z,20.60
2022-08-22T04:40:08.245Z,14.70
2022-08-22T04:43:16.505Z,19.63
2022-08-22T04:46:26.282Z,20.05
2022-08-22T04:49:47.236Z,19.80
2022-08-22T04:53:14.461Z,18.15
2022-08-22T04:56:23.998Z,22.15
2022-08-22T04:59:27.652Z,18.88
2022-08-22T05:02:37.753Z,23.98
2022-08-22T05:05:44.168Z,24.98
2022-08-22T05:08:53.822Z,21.77
2022-08-22T05:12:03.059Z,18.33
2022-08-22T05:15:12.544Z,17.23
2022-08-22T05:18:21.946Z,19.90
2022-08-22T05:21:33.803Z,23.00
2022-08-22T05:24:41.399Z,20.42
2022-08-22T05:27:49.438Z,17.52
2022-08-22T05:30:57.964Z,19.58
2022-08-22T05:34:05.671Z,22.05
2022-08-22T05:37:15.679Z,23.15
2022-08-22T05:40:21.992Z,20.58
2022-08-22T05:43:26.839Z,24.17
2022-08-22T05:46:40.472Z,27.58
2022-08-22T05:49:52.214Z,22.40
2022-08-22T05:53:03.763Z,24.75
2022-08-22T05:56:11.561Z,23.80
2022-08-22T05:59:24.810Z,28.70
2022-08-22T06:02:46.871Z,30.58
2022-08-22T06:05:55.182Z,27.10
2022-08-22T06:09:05.602Z,22.77
2022-08-22T06:12:22.205Z,22.92
2022-08-22T06:15:31.650Z,23.75
2022-08-22T06:18:37.359Z,25.25
2022-08-22T06:21:41.981Z,25.77
2022-08-22T06:24:49.418Z,21.83
2022-08-22T06:27:54.485Z,27.20
2022-08-22T06:31:00.368Z,21.80
2022-08-22T06:34:10.924Z,22.13
2022-08-22T06:37:22.523Z,23.98
2022-08-22T06:40:29.038Z,23.30
2022-08-22T06:43:44.784Z,25.98
2022-08-22T06:46:52.236Z,26.63
2022-08-22T06:50:05.453Z,23.08
2022-08-22T06:53:12.407Z,23.77
2022-08-22T06:56:22.606Z,29.35
2022-08-22T06:59:29.029Z,28.13
2022-08-22T07:02:37.732Z,22.98
2022-08-22T07:05:43.763Z,29.02
2022-08-22T07:08:53.660Z,24.45
2022-08-22T07:12:02.324Z,22.83
2022-08-22T07:15:13.348Z,25.73
2022-08-22T07:18:21.959Z,26.02
2022-08-22T07:21:28.722Z,25.30
2022-08-22T07:24:34.695Z,35.20
2022-08-22T07:27:57.297Z,25.27
2022-08-22T07:31:08.272Z,25.00
2022-08-22T07:35:57.485Z,28.63
2022-08-22T07:43:50.539Z,25.30
2022-08-22T07:47:33.277Z,24.35
2022-08-22T07:51:03.187Z,29.23
2022-08-22T07:58:45.215Z,23.83
2022-08-22T08:03:22.109Z,28.88
2022-08-22T08:15:28.344Z,30.10
2022-08-22T08:27:44.259Z,31.65
2022-08-22T08:30:57.800Z,29.20
2022-08-22T08:44:00.742Z,25.20
2022-08-22T08:52:28.211Z,28.33
2022-08-22T09:00:04.293Z,28.13
2022-08-22T09:04:15.018Z,27.40
2022-08-22T09:08:12.708Z,23.23
2022-08-22T09:12:05.046Z,26.38
2022-08-22T09:16:18.709Z,27.38
2022-08-22T09:20:52.678Z,31.58
2022-08-22T09:29:18.613Z,24.75
2022-08-22T09:37:27.080Z,23.85
2022-08-22T09:50:08.431Z,21.95
2022-08-22T09:53:38.050Z,29.92
2022-08-22T09:57:01.078Z,52.15
2022-08-22T10:00:25.656Z,23.58
2022-08-22T10:03:54.963Z,19.75
2022-08-22T10:07:12.376Z,19.13
2022-08-22T10:10:32.826Z,23.58
2022-08-22T10:14:26.614Z,15.98
2022-08-22T10:18:10.398Z,17.17
2022-08-22T10:21:45.730Z,12.07
2022-08-22T10:25:21.011Z,17.10
2022-08-22T10:38:52.445Z,19.30
2022-08-22T10:42:46.271Z,17.77
2022-08-22T10:47:04.687Z,21.23
2022-08-22T10:51:01.477Z,21.27
2022-08-22T10:55:09.882Z,14.88
2022-08-22T10:59:22.793Z,15.57
2022-08-22T11:04:12.261Z,16.77
2022-08-22T11:08:00.256Z,19.35
2022-08-22T11:11:25.306Z,16.85
2022-08-22T11:20:44.346Z,11.52
2022-08-22T11:27:37.966Z,17.77
2022-08-22T11:30:52.923Z,11.63
2022-08-22T11:34:04.833Z,26.35
2022-08-22T11:37:20.234Z,72.28
2022-08-22T11:40:38.391Z,9.88
2022-08-22T11:43:51.569Z,11.18
2022-08-22T11:46:57.355Z,17.60
2022-08-22T11:50:14.055Z,12.35
2022-08-22T11:53:29.098Z,12.13
2022-08-22T11:56:37.350Z,7.95
2022-08-22T12:00:03.860Z,11.05
2022-08-22T12:03:36.015Z,10.45
2022-08-22T12:06:57.731Z,8.20
2022-08-22T12:10:06.885Z,11.05
2022-08-22T12:13:34.104Z,12.07
2022-08-22T12:16:47.388Z,9.13
2022-08-22T12:20:22.605Z,13.60
2022-08-22T12:24:19.371Z,17.17
2022-08-22T12:27:50.946Z,10.35
2022-08-22T12:31:14.850Z,8.80
2022-08-22T12:34:32.416Z,9.35
2022-08-22T12:37:57.427Z,10.10
2022-08-22T12:41:56.532Z,9.27
2022-08-22T12:45:19.449Z,8.18
2022-08-22T12:48:41.718Z,9.93
2022-08-22T12:52:04.486Z,10.10
2022-08-22T12:55:25.420Z,10.40
2022-08-22T12:58:51.068Z,14.93
2022-08-22T13:02:00.361Z,7.45
2022-08-22T13:08:30.700Z,9.10
2022-08-22T13:11:38.792Z,14.90
2022-08-22T13:14:46.352Z,14.98
2022-08-22T13:17:54.628Z,14.10
2022-08-22T13:21:05.887Z,10.63
2022-08-22T13:24:16.973Z,8.48
2022-08-22T13:27:30.704Z,10.88
2022-08-22T13:30:37.630Z,12.40
2022-08-22T13:34:01.433Z,19.35
2022-08-22T13:37:12.593Z,13.63
2022-08-22T13:40:25.557Z,12.77
2022-08-22T13:43:32.279Z,7.95
2022-08-22T13:46:52.799Z,12.95
2022-08-22T13:50:10.308Z,10.65
2022-08-22T13:53:26.083Z,13.07
2022-08-22T13:56:36.832Z,8.50
2022-08-22T13:59:51.537Z,8.85
2022-08-22T14:03:07.992Z,8.32
2022-08-22T14:06:38.161Z,13.75
2022-08-22T14:09:55.838Z,11.63
2022-08-22T14:13:31.404Z,10.30
2022-08-22T14:16:39.409Z,12.98
2022-08-22T14:19:52.853Z,13.65
2022-08-22T14:23:07.543Z,14.68
2022-08-22T14:26:33.010Z,10.83
2022-08-22T14:29:45.913Z,13.13
2022-08-22T14:32:56.300Z,12.35
2022-08-22T14:36:03.601Z,14.55
2022-08-22T14:39:12.915Z,20.95
2022-08-22T14:45:28.314Z,18.90
2022-08-22T14:48:42.896Z,17.08
2022-08-22T14:51:51.116Z,17.92
2022-08-22T14:55:09.828Z,17.73
2022-08-22T14:58:27.547Z,18.50
2022-08-22T15:01:37.301Z,16.88
2022-08-22T15:04:44.090Z,14.35
2022-08-22T15:07:56.263Z,11.23
2022-08-22T15:11:27.283Z,14.68
2022-08-22T15:14:52.045Z,19.05
2022-08-22T15:17:56.425Z,18.25
2022-08-22T15:21:08.917Z,18.42
2022-08-22T15:24:16.120Z,18.02
2022-08-22T15:27:21.823Z,14.55
2022-08-22T15:30:37.804Z,15.70
2022-08-22T15:33:45.472Z,9.30
2022-08-22T15:37:29.897Z,10.88
2022-08-22T15:40:40.859Z,14.43
2022-08-22T15:43:49.648Z,12.97
2022-08-22T15:47:02.577Z,12.40
2022-08-22T15:50:35.891Z,16.15
2022-08-22T15:54:53.431Z,21.80
2022-08-22T15:58:26.738Z,19.25
2022-08-22T16:06:17.108Z,11.88
2022-08-22T16:09:54.608Z,17.15
2022-08-22T16:13:45.896Z,11.48
2022-08-22T16:17:11.916Z,14.15
2022-08-22T16:20:55.110Z,12.25
2022-08-22T16:24:33.902Z,11.02
2022-08-22T16:27:55.349Z,13.93
2022-08-22T16:31:14.569Z,16.60
2022-08-22T16:34:26.164Z,16.75
2022-08-22T16:37:50.563Z,13.55
2022-08-22T16:40:57.545Z,18.27
2022-08-22T16:44:39.869Z,15.88
2022-08-22T16:47:52.740Z,14.20
2022-08-22T16:51:15.077Z,21.23
2022-08-22T16:54:44.306Z,20.17
2022-08-22T16:58:06.472Z,16.35
2022-08-22T17:01:21.133Z,23.75
2022-08-22T17:04:40.864Z,20.58
2022-08-22T17:07:56.463Z,16.38
2022-08-22T17:11:13.847Z,17.25
2022-08-22T17:14:29.838Z,22.13
2022-08-22T17:17:43.043Z,18.70
2022-08-22T17:20:51.121Z,17.02
2022-08-22T17:24:03.342Z,21.42
2022-08-22T17:27:14.962Z,26.25
2022-08-22T17:30:30.481Z,26.25
2022-08-22T17:34:01.571Z,18.88
2022-08-22T17:37:11.623Z,46.08
2022-08-22T17:43:49.324Z,25.10
2022-08-22T17:47:01.925Z,20.95
2022-08-22T17:50:12.081Z,23.90
2022-08-22T17:56:34.457Z,27.40
2022-08-22T17:59:46.957Z,23.58
2022-08-22T18:02:57.854Z,27.63
2022-08-22T18:06:06.660Z,32.22
2022-08-22T18:09:23.433Z,29.27
2022-08-22T18:12:34.745Z,23.30
2022-08-22T18:15:46.557Z,19.05
2022-08-22T18:19:00.490Z,34.35
2022-08-22T18:22:09.934Z,42.78
2022-08-22T18:25:35.674Z,39.30
2022-08-22T18:28:45.125Z,32.08
2022-08-22T18:31:54.280Z,37.28
2022-08-22T18:35:08.860Z,33.80
2022-08-22T18:38:29.625Z,34.25
2022-08-22T18:41:37.214Z,27.23
2022-08-22T18:44:49.586Z,26.60
2022-08-22T18:47:59.733Z,32.85
2022-08-22T18:51:25.786Z,30.77
2022-08-22T18:54:46.807Z,34.30
2022-08-22T18:58:30.133Z,29.30
2022-08-22T19:01:52.474Z,36.08
2022-08-22T19:05:47.553Z,28.90
2022-08-22T19:09:22.744Z,24.45
2022-08-22T19:13:01.583Z,28.10
2022-08-22T19:16:28.383Z,29.55
2022-08-22T19:20:07.819Z,26.23
2022-08-22T19:23:47.098Z,32.57
2022-08-22T19:27:25.568Z,30.65
2022-08-22T19:30:45.298Z,33.63
2022-08-22T19:33:52.666Z,36.72
2022-08-22T19:37:31.777Z,44.20
2022-08-22T19:40:58.276Z,36.65
2022-08-22T19:44:04.034Z,36.88
2022-08-22T19:47:31.824Z,33.38
2022-08-22T19:50:38.474Z,33.95
2022-08-22T19:53:53.599Z,44.85
2022-08-22T19:57:09.955Z,36.20
2022-08-22T20:00:20.707Z,43.40
2022-08-22T20:03:37.636Z,30.27
2022-08-22T20:06:53.453Z,30.17
2022-08-22T20:10:07.395Z,33.45
2022-08-22T20:13:22.187Z,35.58
2022-08-22T20:17:04.658Z,29.42
2022-08-22T20:20:19.237Z,29.63
2022-08-22T20:23:29.589Z,32.20
2022-08-22T20:29:40.559Z,28.48
2022-08-22T20:32:51.807Z,27.55
2022-08-22T20:35:59.347Z,29.85
2022-08-22T20:39:07.462Z,26.85
2022-08-22T20:42:16.448Z,27.90
2022-08-22T20:45:23.108Z,27.67
2022-08-22T20:48:40.963Z,27.27
2022-08-22T20:51:53.169Z,27.23
2022-08-22T20:55:03.383Z,29.20
2022-08-22T21:01:25.993Z,35.33
2022-08-22T21:04:42.835Z,30.25
2022-08-22T21:07:48.201Z,34.58
2022-08-22T21:11:16.930Z,31.45
2022-08-22T21:14:22.566Z,29.35
2022-08-22T21:17:34.395Z,29.63
2022-08-22T21:20:44.142Z,31.08
2022-08-22T21:23:49.337Z,26.73
2022-08-22T21:26:57.855Z,28.90
2022-08-22T21:30:03.506Z,32.00
2022-08-22T21:33:07.093Z,34.13
2022-08-22T21:36:15.224Z,26.95
2022-08-22T21:39:22.757Z,32.28
2022-08-22T21:42:30.567Z,28.48
2022-08-22T21:48:58.573Z,36.90
2022-08-22T21:52:03.968Z,24.98
2022-08-22T21:55:24.105Z,29.38
2022-08-22T22:01:42.724Z,27.77
2022-08-22T22:04:49.453Z,34.15
2022-08-22T22:07:54.608Z,34.95
2022-08-22T22:11:00.167Z,25.98
2022-08-22T22:14:03.802Z,34.05
2022-08-22T22:17:07.896Z,34.47
2022-08-22T22:20:12.890Z,29.10
2022-08-22T22:23:17.918Z,32.75
2022-08-22T22:26:22.121Z,28.10
2022-08-22T22:29:26.053Z,31.35
2022-08-22T22:32:29.556Z,32.95
2022-08-22T22:35:33.788Z,32.42
2022-08-22T22:38:39.420Z,32.97
2022-08-22T22:41:43.114Z,30.60
2022-08-22T22:44:47.527Z,34.67
2022-08-22T22:47:51.133Z,28.65
2022-08-22T22:50:55.219Z,36.75
2022-08-22T22:54:00.220Z,31.13
2022-08-22T22:57:04.310Z,40.95
2022-08-22T23:00:09.479Z,35.30
2022-08-22T23:03:13.155Z,35.90
2022-08-22T23:06:19.469Z,42.38
2022-08-22T23:09:37.975Z,40.47
2022-08-22T23:12:45.984Z,34.80
2022-08-22T23:15:49.267Z,41.95
2022-08-22T23:18:52.716Z,42.67
2022-08-22T23:21:58.272Z,44.35
2022-08-22T23:25:03.090Z,43.60
2022-08-22T23:28:06.351Z,45.35
2022-08-22T23:31:15.853Z,38.63
2022-08-22T23:34:22.842Z,32.85
2022-08-22T23:37:26.202Z,40.13
2022-08-22T23:40:31.113Z,41.22
2022-08-22T23:43:34.479Z,43.45
2022-08-22T23:46:38.297Z,40.95
2022-08-22T23:49:42.524Z,37.25
2022-08-22T23:52:45.802Z,39.90
2022-08-22T23:55:50.547Z,40.22
2022-08-22T23:58:54.355Z,40.13
